sensor_id;sensor_type;location;lat;lon;timestamp;pressure;altitude;pressure_sealevel;temperature;humidity
25658;BME280;13517;59.320;18.042;2023-02-19T00:00:59;99575.09;;;-2.02;92.25
25658;BME280;13517;59.320;18.042;2023-02-19T00:03:25;99582.59;;;-1.88;91.43
25658;BME280;13517;59.320;18.042;2023-02-19T00:05:51;99588.00;;;-1.91;91.71
25658;BME280;13517;59.320;18.042;2023-02-19T00:08:16;99586.84;;;-2.11;91.67
25658;BME280;13517;59.320;18.042;2023-02-19T00:10:42;99617.44;;;-1.73;91.57
25658;BME280;13517;59.320;18.042;2023-02-19T00:13:07;99594.44;;;-2.00;91.54
25658;BME280;13517;59.320;18.042;2023-02-19T00:15:33;99578.25;;;-1.90;91.02
25658;BME280;13517;59.320;18.042;2023-02-19T00:17:58;99588.00;;;-1.91;90.66
25658;BME280;13517;59.320;18.042;2023-02-19T00:20:24;99596.81;;;-1.92;91.40
25658;BME280;13517;59.320;18.042;2023-02-19T00:22:49;99593.28;;;-1.91;91.46
25658;BME280;13517;59.320;18.042;2023-02-19T00:25:15;99592.72;;;-2.01;91.92
25658;BME280;13517;59.320;18.042;2023-02-19T00:27:40;99622.97;;;-1.81;91.75
25658;BME280;13517;59.320;18.042;2023-02-19T00:30:06;99551.09;;;-2.24;91.64
25658;BME280;13517;59.320;18.042;2023-02-19T00:32:32;99579.66;;;-2.07;92.20
25658;BME280;13517;59.320;18.042;2023-02-19T00:34:57;99587.03;;;-2.17;92.67
25658;BME280;13517;59.320;18.042;2023-02-19T00:37:23;99584.66;;;-2.26;93.49
25658;BME280;13517;59.320;18.042;2023-02-19T00:39:48;99584.59;;;-2.25;92.98
25658;BME280;13517;59.320;18.042;2023-02-19T00:42:14;99625.09;;;-1.93;92.34
25658;BME280;13517;59.320;18.042;2023-02-19T00:44:39;99559.53;;;-2.41;92.65
25658;BME280;13517;59.320;18.042;2023-02-19T00:47:04;99589.53;;;-2.12;92.80
25658;BME280;13517;59.320;18.042;2023-02-19T00:49:30;99562.06;;;-2.38;91.94
25658;BME280;13517;59.320;18.042;2023-02-19T00:51:55;99635.66;;;-1.91;91.85
25658;BME280;13517;59.320;18.042;2023-02-19T00:54:21;99527.41;;;-2.59;92.85
25658;BME280;13517;59.320;18.042;2023-02-19T00:56:47;99632.34;;;-1.99;93.00
25658;BME280;13517;59.320;18.042;2023-02-19T00:59:13;99622.81;;;-2.05;93.09
25658;BME280;13517;59.320;18.042;2023-02-19T01:01:39;99628.88;;;-2.01;93.29
25658;BME280;13517;59.320;18.042;2023-02-19T01:04:05;99588.09;;;-2.23;93.10
25658;BME280;13517;59.320;18.042;2023-02-19T01:06:30;99595.91;;;-2.20;92.63
25658;BME280;13517;59.320;18.042;2023-02-19T01:08:57;99639.56;;;-2.04;92.87
25658;BME280;13517;59.320;18.042;2023-02-19T01:11:22;99632.44;;;-2.02;92.51
25658;BME280;13517;59.320;18.042;2023-02-19T01:13:48;99523.19;;;-2.65;93.07
25658;BME280;13517;59.320;18.042;2023-02-19T01:16:17;99520.06;;;-2.78;91.83
25658;BME280;13517;59.320;18.042;2023-02-19T01:18:44;99643.00;;;-2.01;92.19
25658;BME280;13517;59.320;18.042;2023-02-19T01:21:15;99628.13;;;-2.05;91.25
25658;BME280;13517;59.320;18.042;2023-02-19T01:23:41;99467.88;;;-3.01;90.79
25658;BME280;13517;59.320;18.042;2023-02-19T01:26:10;99615.31;;;-2.19;91.71
25658;BME280;13517;59.320;18.042;2023-02-19T01:28:36;99571.88;;;-2.42;92.14
25658;BME280;13517;59.320;18.042;2023-02-19T01:31:04;99631.84;;;-2.12;92.34
25658;BME280;13517;59.320;18.042;2023-02-19T01:33:30;99634.47;;;-2.11;92.11
25658;BME280;13517;59.320;18.042;2023-02-19T01:35:56;99586.84;;;-2.41;91.81
25658;BME280;13517;59.320;18.042;2023-02-19T01:38:21;99600.47;;;-2.25;91.64
25658;BME280;13517;59.320;18.042;2023-02-19T01:40:57;99580.91;;;-2.49;91.25
25658;BME280;13517;59.320;18.042;2023-02-19T01:43:23;99630.28;;;-2.18;91.74
25658;BME280;13517;59.320;18.042;2023-02-19T01:45:49;99602.03;;;-2.48;92.05
25658;BME280;13517;59.320;18.042;2023-02-19T01:48:24;99561.91;;;-2.62;91.26
25658;BME280;13517;59.320;18.042;2023-02-19T01:50:58;99620.84;;;-2.28;90.54
25658;BME280;13517;59.320;18.042;2023-02-19T01:53:30;99561.88;;;-2.61;90.81
25658;BME280;13517;59.320;18.042;2023-02-19T01:55:59;99616.84;;;-2.42;91.26
25658;BME280;13517;59.320;18.042;2023-02-19T01:58:27;99607.91;;;-2.38;90.13
25658;BME280;13517;59.320;18.042;2023-02-19T02:00:54;99513.34;;;-2.90;91.04
25658;BME280;13517;59.320;18.042;2023-02-19T02:03:19;99597.50;;;-2.44;90.17
25658;BME280;13517;59.320;18.042;2023-02-19T02:05:55;99598.16;;;-2.36;89.81
25658;BME280;13517;59.320;18.042;2023-02-19T02:08:24;99628.91;;;-2.31;90.72
25658;BME280;13517;59.320;18.042;2023-02-19T02:11:09;99633.91;;;-2.22;91.02
25658;BME280;13517;59.320;18.042;2023-02-19T02:13:35;99605.47;;;-2.46;91.06
25658;BME280;13517;59.320;18.042;2023-02-19T02:21:45;99633.28;;;-2.30;90.41
25658;BME280;13517;59.320;18.042;2023-02-19T02:27:52;99624.59;;;-2.36;90.88
25658;BME280;13517;59.320;18.042;2023-02-19T02:31:00;99637.78;;;-2.34;90.48
25658;BME280;13517;59.320;18.042;2023-02-19T02:35:29;99618.53;;;-2.39;90.20
25658;BME280;13517;59.320;18.042;2023-02-19T02:37:59;99602.00;;;-2.46;90.02
25658;BME280;13517;59.320;18.042;2023-02-19T02:40:26;99628.91;;;-2.31;90.41
25658;BME280;13517;59.320;18.042;2023-02-19T02:42:56;99548.97;;;-2.71;89.38
25658;BME280;13517;59.320;18.042;2023-02-19T02:45:27;99552.28;;;-2.65;89.45
25658;BME280;13517;59.320;18.042;2023-02-19T02:48:02;99585.84;;;-2.37;89.33
25658;BME280;13517;59.320;18.042;2023-02-19T02:50:44;99610.41;;;-2.33;88.58
25658;BME280;13517;59.320;18.042;2023-02-19T02:53:19;99575.13;;;-2.62;89.59
25658;BME280;13517;59.320;18.042;2023-02-19T02:56:04;99606.22;;;-2.40;88.80
25658;BME280;13517;59.320;18.042;2023-02-19T02:58:31;99620.22;;;-2.37;90.29
25658;BME280;13517;59.320;18.042;2023-02-19T03:01:06;99614.00;;;-2.36;88.08
25658;BME280;13517;59.320;18.042;2023-02-19T03:03:56;99578.53;;;-2.58;88.25
25658;BME280;13517;59.320;18.042;2023-02-19T03:06:27;99592.34;;;-2.49;88.74
25658;BME280;13517;59.320;18.042;2023-02-19T03:11:22;99542.16;;;-2.80;89.50
25658;BME280;13517;59.320;18.042;2023-02-19T03:14:15;99622.88;;;-2.37;88.41
25658;BME280;13517;59.320;18.042;2023-02-19T03:17:08;99604.78;;;-2.51;88.85
25658;BME280;13517;59.320;18.042;2023-02-19T03:19:55;99626.31;;;-2.35;88.01
25658;BME280;13517;59.320;18.042;2023-02-19T03:22:25;99602.00;;;-2.46;87.23
25658;BME280;13517;59.320;18.042;2023-02-19T03:25:03;99638.47;;;-2.27;86.17
25658;BME280;13517;59.320;18.042;2023-02-19T03:27:48;99639.50;;;-2.33;88.61
25658;BME280;13517;59.320;18.042;2023-02-19T03:30:20;99652.84;;;-2.36;87.40
25658;BME280;13517;59.320;18.042;2023-02-19T03:32:59;99651.81;;;-2.32;86.88
25658;BME280;13517;59.320;18.042;2023-02-19T03:35:29;99626.44;;;-2.38;88.15
25658;BME280;13517;59.320;18.042;2023-02-19T03:41:18;99641.16;;;-2.29;84.67
25658;BME280;13517;59.320;18.042;2023-02-19T03:43:48;99641.84;;;-2.22;87.68
25658;BME280;13517;59.320;18.042;2023-02-19T03:47:19;99661.28;;;-2.23;86.88
25658;BME280;13517;59.320;18.042;2023-02-19T03:50:23;99674.50;;;-2.23;87.35
25658;BME280;13517;59.320;18.042;2023-02-19T03:53:37;99660.22;;;-2.17;84.80
25658;BME280;13517;59.320;18.042;2023-02-19T03:58:06;99682.13;;;-2.12;86.52
25658;BME280;13517;59.320;18.042;2023-02-19T04:03:07;99669.69;;;-2.09;86.94
25658;BME280;13517;59.320;18.042;2023-02-19T04:05:40;99598.94;;;-2.64;86.13
25658;BME280;13517;59.320;18.042;2023-02-19T04:08:12;99681.06;;;-2.07;87.38
25658;BME280;13517;59.320;18.042;2023-02-19T04:10:39;99624.88;;;-2.45;86.72
25658;BME280;13517;59.320;18.042;2023-02-19T04:13:22;99650.06;;;-2.31;85.95
25658;BME280;13517;59.320;18.042;2023-02-19T04:15:50;99689.09;;;-2.08;87.59
25658;BME280;13517;59.320;18.042;2023-02-19T04:18:22;99656.97;;;-2.27;87.22
25658;BME280;13517;59.320;18.042;2023-02-19T04:20:49;99564.69;;;-2.67;87.53
25658;BME280;13517;59.320;18.042;2023-02-19T04:23:19;99672.69;;;-2.21;86.44
25658;BME280;13517;59.320;18.042;2023-02-19T04:25:50;99688.84;;;-2.00;87.14
25658;BME280;13517;59.320;18.042;2023-02-19T04:28:18;99680.91;;;-2.00;88.54
25658;BME280;13517;59.320;18.042;2023-02-19T04:30:44;99661.91;;;-2.15;88.28
25658;BME280;13517;59.320;18.042;2023-02-19T04:33:09;99650.81;;;-2.26;88.52
25658;BME280;13517;59.320;18.042;2023-02-19T04:35:35;99636.72;;;-2.28;86.95
25658;BME280;13517;59.320;18.042;2023-02-19T04:38:00;99642.72;;;-2.22;87.74
25658;BME280;13517;59.320;18.042;2023-02-19T04:40:26;99572.44;;;-2.61;87.76
25658;BME280;13517;59.320;18.042;2023-02-19T04:42:51;99583.81;;;-2.58;88.15
25658;BME280;13517;59.320;18.042;2023-02-19T04:45:16;99646.84;;;-2.13;87.77
25658;BME280;13517;59.320;18.042;2023-02-19T04:47:42;99710.47;;;-1.86;88.31
25658;BME280;13517;59.320;18.042;2023-02-19T04:50:07;99695.50;;;-1.87;88.46
25658;BME280;13517;59.320;18.042;2023-02-19T04:52:33;99698.09;;;-1.85;87.54
25658;BME280;13517;59.320;18.042;2023-02-19T04:54:59;99674.78;;;-2.02;88.18
25658;BME280;13517;59.320;18.042;2023-02-19T04:57:25;99658.13;;;-2.06;88.47
25658;BME280;13517;59.320;18.042;2023-02-19T04:59:50;99678.38;;;-2.05;89.00
25658;BME280;13517;59.320;18.042;2023-02-19T05:02:15;99593.47;;;-2.57;88.00
25658;BME280;13517;59.320;18.042;2023-02-19T05:04:41;99697.81;;;-2.04;88.22
25658;BME280;13517;59.320;18.042;2023-02-19T05:07:06;99588.47;;;-2.67;88.14
25658;BME280;13517;59.320;18.042;2023-02-19T05:09:32;99621.59;;;-2.53;89.06
25658;BME280;13517;59.320;18.042;2023-02-19T05:11:57;99591.94;;;-2.65;88.00
25658;BME280;13517;59.320;18.042;2023-02-19T05:14:23;99661.44;;;-2.29;88.55
25658;BME280;13517;59.320;18.042;2023-02-19T05:16:48;99609.53;;;-2.64;87.55
25658;BME280;13517;59.320;18.042;2023-02-19T05:19:14;99628.94;;;-2.65;88.47
25658;BME280;13517;59.320;18.042;2023-02-19T05:21:39;99690.34;;;-2.22;89.23
25658;BME280;13517;59.320;18.042;2023-02-19T05:24:05;99590.63;;;-2.81;88.95
25658;BME280;13517;59.320;18.042;2023-02-19T05:26:31;99600.41;;;-2.83;88.73
25658;BME280;13517;59.320;18.042;2023-02-19T05:28:57;99691.38;;;-2.27;89.02
25658;BME280;13517;59.320;18.042;2023-02-19T05:31:23;99670.56;;;-2.40;88.07
25658;BME280;13517;59.320;18.042;2023-02-19T05:33:49;99677.75;;;-2.45;88.67
25658;BME280;13517;59.320;18.042;2023-02-19T05:36:19;99633.56;;;-2.71;88.97
25658;BME280;13517;59.320;18.042;2023-02-19T05:38:45;99663.13;;;-2.57;88.95
25658;BME280;13517;59.320;18.042;2023-02-19T05:41:17;99696.00;;;-2.36;87.62
25658;BME280;13517;59.320;18.042;2023-02-19T05:43:45;99704.88;;;-2.37;88.88
25658;BME280;13517;59.320;18.042;2023-02-19T05:46:13;99725.09;;;-2.36;88.95
25658;BME280;13517;59.320;18.042;2023-02-19T05:48:40;99707.47;;;-2.35;88.50
25658;BME280;13517;59.320;18.042;2023-02-19T05:51:08;99704.00;;;-2.37;88.65
25658;BME280;13517;59.320;18.042;2023-02-19T05:53:34;99712.97;;;-2.43;88.45
25658;BME280;13517;59.320;18.042;2023-02-19T05:55:59;99591.47;;;-3.12;88.49
25658;BME280;13517;59.320;18.042;2023-02-19T05:58:25;99502.25;;;-3.67;88.98
25658;BME280;13517;59.320;18.042;2023-02-19T06:00:51;99681.81;;;-2.65;89.59
25658;BME280;13517;59.320;18.042;2023-02-19T06:03:17;99702.63;;;-2.51;89.18
25658;BME280;13517;59.320;18.042;2023-02-19T06:05:42;99626.31;;;-2.98;88.71
25658;BME280;13517;59.320;18.042;2023-02-19T06:08:10;99601.25;;;-3.16;88.49
25658;BME280;13517;59.320;18.042;2023-02-19T06:10:37;99720.16;;;-2.48;89.22
25658;BME280;13517;59.320;18.042;2023-02-19T06:13:04;99706.53;;;-2.66;89.63
25658;BME280;13517;59.320;18.042;2023-02-19T06:15:29;99539.19;;;-3.67;89.18
25658;BME280;13517;59.320;18.042;2023-02-19T06:17:55;99710.06;;;-2.65;89.05
25658;BME280;13517;59.320;18.042;2023-02-19T06:20:20;99642.44;;;-3.09;89.12
25658;BME280;13517;59.320;18.042;2023-02-19T06:22:48;99664.38;;;-3.05;88.98
25658;BME280;13517;59.320;18.042;2023-02-19T06:25:14;99686.91;;;-2.90;89.36
25658;BME280;13517;59.320;18.042;2023-02-19T06:27:39;99710.38;;;-2.78;89.10
25658;BME280;13517;59.320;18.042;2023-02-19T06:30:05;99733.72;;;-2.61;90.07
25658;BME280;13517;59.320;18.042;2023-02-19T06:32:31;99650.56;;;-3.15;89.96
25658;BME280;13517;59.320;18.042;2023-02-19T06:34:56;99744.19;;;-2.57;89.93
25658;BME280;13517;59.320;18.042;2023-02-19T06:37:21;99704.44;;;-2.88;90.26
25658;BME280;13517;59.320;18.042;2023-02-19T06:39:47;99641.91;;;-3.22;90.53
25658;BME280;13517;59.320;18.042;2023-02-19T06:42:12;99707.16;;;-2.91;91.16
25658;BME280;13517;59.320;18.042;2023-02-19T06:44:38;99706.16;;;-2.85;89.85
25658;BME280;13517;59.320;18.042;2023-02-19T06:47:03;99751.31;;;-2.60;89.37
25658;BME280;13517;59.320;18.042;2023-02-19T06:49:29;99701.00;;;-2.90;89.83
25658;BME280;13517;59.320;18.042;2023-02-19T06:51:54;99773.13;;;-2.51;89.54
25658;BME280;13517;59.320;18.042;2023-02-19T06:54:20;99753.22;;;-2.66;89.64
25658;BME280;13517;59.320;18.042;2023-02-19T06:56:45;99766.03;;;-2.49;89.32
25658;BME280;13517;59.320;18.042;2023-02-19T06:59:13;99769.50;;;-2.47;88.31
25658;BME280;13517;59.320;18.042;2023-02-19T07:01:41;99742.56;;;-2.62;88.28
25658;BME280;13517;59.320;18.042;2023-02-19T07:04:07;99773.84;;;-2.44;88.45
25658;BME280;13517;59.320;18.042;2023-02-19T07:06:33;99776.53;;;-2.46;89.04
25658;BME280;13517;59.320;18.042;2023-02-19T07:08:59;99701.81;;;-2.88;88.09
25658;BME280;13517;59.320;18.042;2023-02-19T07:11:25;99778.16;;;-2.42;88.51
25658;BME280;13517;59.320;18.042;2023-02-19T07:13:54;99786.09;;;-2.42;88.99
25658;BME280;13517;59.320;18.042;2023-02-19T07:16:20;99717.94;;;-2.98;88.38
25658;BME280;13517;59.320;18.042;2023-02-19T07:18:46;99697.44;;;-2.89;86.93
25658;BME280;13517;59.320;18.042;2023-02-19T07:21:13;99752.22;;;-2.61;87.77
25658;BME280;13517;59.320;18.042;2023-02-19T07:23:40;99787.78;;;-2.38;88.55
25658;BME280;13517;59.320;18.042;2023-02-19T07:26:10;99791.25;;;-2.36;87.62
25658;BME280;13517;59.320;18.042;2023-02-19T07:28:36;99752.38;;;-2.67;87.90
25658;BME280;13517;59.320;18.042;2023-02-19T07:31:02;99795.81;;;-2.41;88.54
25658;BME280;13517;59.320;18.042;2023-02-19T07:33:28;99694.91;;;-2.93;88.27
25658;BME280;13517;59.320;18.042;2023-02-19T07:35:53;99747.00;;;-2.64;88.11
25658;BME280;13517;59.320;18.042;2023-02-19T07:38:20;99757.38;;;-2.54;88.38
25658;BME280;13517;59.320;18.042;2023-02-19T07:40:58;99797.28;;;-2.30;86.44
25658;BME280;13517;59.320;18.042;2023-02-19T07:43:26;99798.31;;;-2.36;86.49
25658;BME280;13517;59.320;18.042;2023-02-19T07:45:52;99830.63;;;-2.25;87.81
25658;BME280;13517;59.320;18.042;2023-02-19T07:48:17;99814.72;;;-2.23;86.98
25658;BME280;13517;59.320;18.042;2023-02-19T07:50:51;99808.56;;;-2.24;85.92
25658;BME280;13517;59.320;18.042;2023-02-19T07:53:17;99760.88;;;-2.55;86.57
25658;BME280;13517;59.320;18.042;2023-02-19T07:55:42;99766.97;;;-2.52;86.78
25658;BME280;13517;59.320;18.042;2023-02-19T07:58:07;99813.84;;;-2.24;85.53
25658;BME280;13517;59.320;18.042;2023-02-19T08:00:33;99721.88;;;-2.80;86.44
25658;BME280;13517;59.320;18.042;2023-02-19T08:02:58;99778.09;;;-2.39;85.22
25658;BME280;13517;59.320;18.042;2023-02-19T08:05:24;99826.75;;;-2.11;84.81
25658;BME280;13517;59.320;18.042;2023-02-19T08:07:50;99779.75;;;-2.35;84.36
25658;BME280;13517;59.320;18.042;2023-02-19T08:10:15;99818.69;;;-2.07;83.31
25658;BME280;13517;59.320;18.042;2023-02-19T08:13:00;99787.53;;;-2.28;82.41
25658;BME280;13517;59.320;18.042;2023-02-19T08:15:44;99838.94;;;-2.06;83.75
25658;BME280;13517;59.320;18.042;2023-02-19T08:18:10;99776.03;;;-2.27;83.19
25658;BME280;13517;59.320;18.042;2023-02-19T08:20:36;99750.94;;;-2.46;82.46
25658;BME280;13517;59.320;18.042;2023-02-19T08:23:01;99754.38;;;-2.42;82.92
25658;BME280;13517;59.320;18.042;2023-02-19T08:25:27;99795.81;;;-2.09;82.91
25658;BME280;13517;59.320;18.042;2023-02-19T08:27:53;99803.81;;;-2.11;83.19
25658;BME280;13517;59.320;18.042;2023-02-19T08:30:18;99783.66;;;-2.16;83.05
25658;BME280;13517;59.320;18.042;2023-02-19T08:32:44;99764.88;;;-2.39;81.71
25658;BME280;13517;59.320;18.042;2023-02-19T08:35:09;99788.00;;;-2.14;82.07
25658;BME280;13517;59.320;18.042;2023-02-19T08:37:35;99830.53;;;-1.88;82.67
25658;BME280;13517;59.320;18.042;2023-02-19T08:40:00;99726.34;;;-2.49;82.69
25658;BME280;13517;59.320;18.042;2023-02-19T08:42:27;99822.84;;;-1.96;81.73
25658;BME280;13517;59.320;18.042;2023-02-19T08:44:53;99733.00;;;-2.34;81.11
25658;BME280;13517;59.320;18.042;2023-02-19T08:47:18;99730.63;;;-2.43;80.61
25658;BME280;13517;59.320;18.042;2023-02-19T08:49:44;99757.34;;;-2.21;79.96
25658;BME280;13517;59.320;18.042;2023-02-19T08:52:09;99846.72;;;-1.66;79.54
25658;BME280;13517;59.320;18.042;2023-02-19T08:54:35;99769.34;;;-2.09;79.88
25658;BME280;13517;59.320;18.042;2023-02-19T08:57:00;99804.00;;;-1.85;79.88
25658;BME280;13517;59.320;18.042;2023-02-19T08:59:27;99789.38;;;-1.99;79.95
25658;BME280;13517;59.320;18.042;2023-02-19T09:01:53;99752.78;;;-2.16;79.56
25658;BME280;13517;59.320;18.042;2023-02-19T09:04:18;99861.47;;;-1.57;78.58
25658;BME280;13517;59.320;18.042;2023-02-19T09:06:44;99775.50;;;-2.07;79.27
25658;BME280;13517;59.320;18.042;2023-02-19T09:09:09;99809.97;;;-1.79;78.46
25658;BME280;13517;59.320;18.042;2023-02-19T09:11:38;99763.97;;;-2.04;78.34
25658;BME280;13517;59.320;18.042;2023-02-19T09:14:03;99865.50;;;-1.44;77.60
25658;BME280;13517;59.320;18.042;2023-02-19T09:16:32;99782.22;;;-1.95;78.80
25658;BME280;13517;59.320;18.042;2023-02-19T09:18:57;99797.59;;;-1.76;77.44
25658;BME280;13517;59.320;18.042;2023-02-19T09:21:23;99823.78;;;-1.67;76.70
25658;BME280;13517;59.320;18.042;2023-02-19T09:23:48;99815.72;;;-1.62;77.37
25658;BME280;13517;59.320;18.042;2023-02-19T09:26:14;99854.53;;;-1.31;76.78
25658;BME280;13517;59.320;18.042;2023-02-19T09:28:39;99873.84;;;-1.28;77.67
25658;BME280;13517;59.320;18.042;2023-02-19T09:31:10;99885.28;;;-1.26;75.87
25658;BME280;13517;59.320;18.042;2023-02-19T09:33:37;99835.53;;;-1.46;75.49
25658;BME280;13517;59.320;18.042;2023-02-19T09:36:05;99903.75;;;-1.23;75.88
25658;BME280;13517;59.320;18.042;2023-02-19T09:38:31;99837.41;;;-1.49;76.32
25658;BME280;13517;59.320;18.042;2023-02-19T09:40:57;99869.72;;;-1.37;75.33
25658;BME280;13517;59.320;18.042;2023-02-19T09:43:26;99830.38;;;-1.51;74.29
25658;BME280;13517;59.320;18.042;2023-02-19T09:46:01;99878.78;;;-1.15;75.82
25658;BME280;13517;59.320;18.042;2023-02-19T09:48:27;99837.06;;;-1.39;76.36
25658;BME280;13517;59.320;18.042;2023-02-19T09:50:54;99812.91;;;-1.58;75.79
25658;BME280;13517;59.320;18.042;2023-02-19T09:53:27;99882.19;;;-1.10;75.22
25658;BME280;13517;59.320;18.042;2023-02-19T09:55:54;99892.66;;;-1.05;73.15
25658;BME280;13517;59.320;18.042;2023-02-19T10:00:48;99900.59;;;-1.05;74.88
25658;BME280;13517;59.320;18.042;2023-02-19T10:03:25;99861.91;;;-1.11;75.63
25658;BME280;13517;59.320;18.042;2023-02-19T10:05:57;99878.47;;;-1.04;75.51
25658;BME280;13517;59.320;18.042;2023-02-19T10:08:23;99804.66;;;-1.47;76.09
25658;BME280;13517;59.320;18.042;2023-02-19T10:10:49;99911.44;;;-0.83;75.15
25658;BME280;13517;59.320;18.042;2023-02-19T10:13:33;99882.63;;;-0.96;71.92
25658;BME280;13517;59.320;18.042;2023-02-19T10:16:01;99846.31;;;-1.22;74.06
25658;BME280;13517;59.320;18.042;2023-02-19T10:18:36;99928.88;;;-0.76;73.50
25658;BME280;13517;59.320;18.042;2023-02-19T10:21:04;99849.91;;;-1.23;73.27
25658;BME280;13517;59.320;18.042;2023-02-19T10:23:30;99896.63;;;-0.90;74.08
25658;BME280;13517;59.320;18.042;2023-02-19T10:25:58;99875.69;;;-1.00;73.97
25658;BME280;13517;59.320;18.042;2023-02-19T10:28:29;99935.81;;;-0.72;73.26
25658;BME280;13517;59.320;18.042;2023-02-19T10:30:57;99854.78;;;-1.11;73.89
25658;BME280;13517;59.320;18.042;2023-02-19T10:33:24;99951.53;;;-0.65;75.28
25658;BME280;13517;59.320;18.042;2023-02-19T10:38:32;99937.28;;;-0.61;73.31
25658;BME280;13517;59.320;18.042;2023-02-19T10:41:13;99954.91;;;-0.59;71.88
25658;BME280;13517;59.320;18.042;2023-02-19T10:43:44;99897.09;;;-0.77;73.90
25658;BME280;13517;59.320;18.042;2023-02-19T10:46:18;99939.81;;;-0.58;71.82
25658;BME280;13517;59.320;18.042;2023-02-19T10:48:52;99941.78;;;-0.63;71.25
25658;BME280;13517;59.320;18.042;2023-02-19T10:51:19;99931.22;;;-0.65;72.31
25658;BME280;13517;59.320;18.042;2023-02-19T10:54:03;99905.63;;;-0.67;69.14
25658;BME280;13517;59.320;18.042;2023-02-19T10:56:29;99871.22;;;-0.98;71.14
25658;BME280;13517;59.320;18.042;2023-02-19T10:59:33;99922.19;;;-0.59;68.46
25658;BME280;13517;59.320;18.042;2023-02-19T11:02:00;99956.31;;;-0.48;69.86
25658;BME280;13517;59.320;18.042;2023-02-19T11:04:31;99928.84;;;-0.46;70.10
25658;BME280;13517;59.320;18.042;2023-02-19T11:07:18;99954.38;;;-0.42;67.71
25658;BME280;13517;59.320;18.042;2023-02-19T11:09:46;99917.50;;;-0.51;69.61
25658;BME280;13517;59.320;18.042;2023-02-19T11:12:27;99952.56;;;-0.41;68.28
25658;BME280;13517;59.320;18.042;2023-02-19T11:14:54;99924.25;;;-0.40;70.28
25658;BME280;13517;59.320;18.042;2023-02-19T11:17:23;99938.13;;;-0.32;69.28
25658;BME280;13517;59.320;18.042;2023-02-19T11:19:57;99870.81;;;-0.85;69.53
25658;BME280;13517;59.320;18.042;2023-02-19T11:25:05;99976.03;;;-0.27;67.99
25658;BME280;13517;59.320;18.042;2023-02-19T11:27:31;99941.75;;;-0.35;68.93
25658;BME280;13517;59.320;18.042;2023-02-19T11:31:10;99960.00;;;-0.24;66.48
25658;BME280;13517;59.320;18.042;2023-02-19T11:35:40;99946.72;;;-0.24;69.68
25658;BME280;13517;59.320;18.042;2023-02-19T11:38:09;99967.72;;;-0.16;67.23
25658;BME280;13517;59.320;18.042;2023-02-19T11:40:39;99942.91;;;-0.15;68.44
25658;BME280;13517;59.320;18.042;2023-02-19T11:45:51;99954.63;;;-0.22;67.14
25658;BME280;13517;59.320;18.042;2023-02-19T11:54:31;99945.25;;;-0.06;66.43
25658;BME280;13517;59.320;18.042;2023-02-19T11:56:35;99953.78;;;0.04;67.19
25658;BME280;13517;59.320;18.042;2023-02-19T11:59:04;99967.03;;;0.04;68.08
25658;BME280;13517;59.320;18.042;2023-02-19T12:42:30;100007.75;;;0.32;62.39
25658;BME280;13517;59.320;18.042;2023-02-19T12:45:18;99977.53;;;0.34;62.81
25658;BME280;13517;59.320;18.042;2023-02-19T12:47:58;99981.34;;;0.27;64.84
25658;BME280;13517;59.320;18.042;2023-02-19T12:50:26;99974.78;;;0.37;65.47
25658;BME280;13517;59.320;18.042;2023-02-19T12:52:59;99950.28;;;0.29;63.85
25658;BME280;13517;59.320;18.042;2023-02-19T12:55:30;99990.47;;;0.45;60.88
25658;BME280;13517;59.320;18.042;2023-02-19T12:58:01;99956.03;;;0.17;62.33
25658;BME280;13517;59.320;18.042;2023-02-19T13:00:40;99972.03;;;0.40;61.34
25658;BME280;13517;59.320;18.042;2023-02-19T13:03:17;100003.66;;;0.48;61.14
25658;BME280;13517;59.320;18.042;2023-02-19T13:06:29;99992.91;;;0.51;58.83
25658;BME280;13517;59.320;18.042;2023-02-19T13:09:12;99970.34;;;0.38;58.47
25658;BME280;13517;59.320;18.042;2023-02-19T13:11:53;99992.44;;;0.40;59.49
25658;BME280;13517;59.320;18.042;2023-02-19T13:14:44;99970.47;;;0.35;58.72
25658;BME280;13517;59.320;18.042;2023-02-19T13:19:58;100016.34;;;0.40;59.77
25658;BME280;13517;59.320;18.042;2023-02-19T13:22:33;99973.72;;;0.43;60.70
25658;BME280;13517;59.320;18.042;2023-02-19T13:25:20;99989.47;;;0.48;61.81
25658;BME280;13517;59.320;18.042;2023-02-19T13:28:28;100018.56;;;0.52;58.55
25658;BME280;13517;59.320;18.042;2023-02-19T13:36:17;100014.88;;;0.57;63.12
25658;BME280;13517;59.320;18.042;2023-02-19T13:38:46;99990.41;;;0.47;62.79
25658;BME280;13517;59.320;18.042;2023-02-19T13:44:05;100002.56;;;0.54;63.36
25658;BME280;13517;59.320;18.042;2023-02-19T13:46:41;99997.47;;;0.48;61.66
25658;BME280;13517;59.320;18.042;2023-02-19T13:51:55;100030.78;;;0.58;63.10
25658;BME280;13517;59.320;18.042;2023-02-19T13:59:52;99996.69;;;0.44;60.65
25658;BME280;13517;59.320;18.042;2023-02-19T14:05:04;99977.34;;;0.13;60.92
25658;BME280;13517;59.320;18.042;2023-02-19T14:07:54;100047.91;;;0.49;61.64
25658;BME280;13517;59.320;18.042;2023-02-19T14:13:10;100038.09;;;0.51;61.98
25658;BME280;13517;59.320;18.042;2023-02-19T14:18:01;100023.56;;;0.36;62.74
25658;BME280;13517;59.320;18.042;2023-02-19T14:20:42;100015.78;;;0.30;59.78
25658;BME280;13517;59.320;18.042;2023-02-19T14:23:35;100049.84;;;0.44;60.42
25658;BME280;13517;59.320;18.042;2023-02-19T14:26:04;100055.47;;;0.35;62.21
25658;BME280;13517;59.320;18.042;2023-02-19T14:28:39;100037.81;;;0.34;61.28
25658;BME280;13517;59.320;18.042;2023-02-19T14:31:47;99961.13;;;-0.04;59.79
25658;BME280;13517;59.320;18.042;2023-02-19T14:33:57;99980.56;;;-0.04;62.70
25658;BME280;13517;59.320;18.042;2023-02-19T14:39:23;100064.53;;;0.29;62.86
25658;BME280;13517;59.320;18.042;2023-02-19T14:41:51;100072.94;;;0.42;63.27
25658;BME280;13517;59.320;18.042;2023-02-19T14:44:24;100068.75;;;0.35;62.41
25658;BME280;13517;59.320;18.042;2023-02-19T14:51:51;100071.50;;;0.32;62.95
25658;BME280;13517;59.320;18.042;2023-02-19T14:54:47;100062.34;;;0.13;61.60
25658;BME280;13517;59.320;18.042;2023-02-19T14:57:18;100063.22;;;0.14;62.89
25658;BME280;13517;59.320;18.042;2023-02-19T14:59:53;100089.44;;;0.25;61.82
25658;BME280;13517;59.320;18.042;2023-02-19T15:02:19;100101.66;;;0.31;63.83